Time,TemperatureF,DewpointF,PressureIn,WindDirection,WindDirectionDegrees,WindSpeedMPH,WindSpeedGustMPH,Humidity,HourlyPrecipIn,Conditions,Clouds,dailyrainin,SoftwareType,DateUTC
2013-03-23 00:01:00,45.7,43.5,30.12,SSW,198,0.0,1.0,92,0.00,,,0.00,meteohub,2013-03-23 07:01:00,
2013-03-23 00:06:00,45.3,43.2,30.12,SSW,198,0.0,0.0,92,0.00,,,0.00,meteohub,2013-03-23 07:06:00,
2013-03-23 00:12:00,45.1,43.0,30.12,SSW,198,0.0,1.0,92,0.00,,,0.00,meteohub,2013-03-23 07:12:00,
2013-03-23 00:17:00,45.1,43.0,30.12,SSW,198,0.0,1.0,92,0.00,,,0.00,meteohub,2013-03-23 07:17:00,
2013-03-23 00:22:00,45.0,42.8,30.12,SSW,198,0.0,1.0,92,0.00,,,0.00,meteohub,2013-03-23 07:22:00,
2013-03-23 00:27:00,45.0,42.8,30.12,SSW,198,0.0,1.0,92,0.00,,,0.00,meteohub,2013-03-23 07:27:00,
2013-03-23 00:32:00,44.8,42.6,30.12,SSW,198,0.0,1.0,92,0.00,,,0.00,meteohub,2013-03-23 07:32:00,
2013-03-23 00:37:00,44.8,42.6,30.12,SSW,198,0.0,1.0,92,0.00,,,0.00,meteohub,2013-03-23 07:37:00,
2013-03-23 00:42:00,45.0,42.8,30.12,SSW,198,0.0,2.0,92,0.00,,,0.00,meteohub,2013-03-23 07:42:00,
2013-03-23 00:47:00,45.0,42.4,30.12,SSW,198,0.0,2.0,91,0.00,,,0.00,meteohub,2013-03-23 07:47:00,
2013-03-23 00:52:00,45.0,42.4,30.12,SSW,198,0.0,2.0,91,0.00,,,0.00,meteohub,2013-03-23 07:52:00,
2013-03-23 00:57:00,45.1,42.4,30.12,SSW,198,0.0,1.0,90,0.00,,,0.00,meteohub,2013-03-23 07:57:00,
2013-03-23 01:02:00,46.0,43.0,30.12,SSW,198,0.0,1.0,89,0.00,,,0.00,meteohub,2013-03-23 08:02:00,
2013-03-23 01:07:00,47.5,43.2,30.12,SSW,198,0.0,0.0,85,0.00,,,0.00,meteohub,2013-03-23 08:07:00,
2013-03-23 01:12:00,48.6,43.0,30.12,SSW,198,0.0,0.0,81,0.00,,,0.00,meteohub,2013-03-23 08:12:00,
2013-03-23 01:17:00,49.3,42.4,30.12,SSW,198,0.0,0.0,77,0.00,,,0.00,meteohub,2013-03-23 08:17:00,
2013-03-23 01:22:00,49.8,42.3,30.12,SSW,198,0.0,0.0,75,0.00,,,0.00,meteohub,2013-03-23 08:22:00,
2013-03-23 01:27:00,50.0,41.7,30.12,SSW,198,0.0,0.0,73,0.00,,,0.00,meteohub,2013-03-23 08:27:00,
2013-03-23 01:32:00,50.0,41.7,30.12,SSW,198,0.0,1.0,73,0.00,,,0.00,meteohub,2013-03-23 08:32:00,
2013-03-23 01:37:00,49.8,41.2,30.12,SSW,198,0.0,2.0,72,0.00,,,0.00,meteohub,2013-03-23 08:37:00,
2013-03-23 01:42:00,50.2,41.5,30.12,SSW,198,0.0,2.0,72,0.00,,,0.00,meteohub,2013-03-23 08:42:00,
2013-03-23 01:47:00,49.8,41.2,30.12,SSW,199,0.0,1.0,72,0.00,,,0.00,meteohub,2013-03-23 08:47:00,
2013-03-23 01:52:00,49.8,41.2,30.12,SSW,199,0.0,1.0,72,0.00,,,0.00,meteohub,2013-03-23 08:52:00,
2013-03-23 01:57:00,50.0,41.4,30.12,SSW,199,0.0,1.0,72,0.00,,,0.00,meteohub,2013-03-23 08:57:00,
2013-03-23 02:02:00,51.1,41.2,30.12,ENE,76,1.0,1.0,69,0.00,,,0.00,meteohub,2013-03-23 09:02:00,
2013-03-23 02:07:00,50.7,41.0,30.12,ENE,76,0.0,3.0,69,0.00,,,0.00,meteohub,2013-03-23 09:07:00,
2013-03-23 02:12:00,50.7,39.7,30.12,NNE,31,2.0,3.0,66,0.00,,,0.00,meteohub,2013-03-23 09:12:00,
2013-03-23 02:17:00,50.9,39.9,30.12,North,0,0.0,3.0,66,0.00,,,0.00,meteohub,2013-03-23 09:17:00,
2013-03-23 02:22:00,51.3,39.9,30.12,NE,49,1.0,4.0,65,0.00,,,0.00,meteohub,2013-03-23 09:22:00,
2013-03-23 02:27:00,51.3,39.0,30.12,NE,40,3.0,4.0,63,0.00,,,0.00,meteohub,2013-03-23 09:27:00,
2013-03-23 02:32:00,51.4,39.2,30.12,NNE,17,0.0,5.0,63,0.00,,,0.00,meteohub,2013-03-23 09:32:00,
2013-03-23 02:37:00,51.1,39.4,30.12,NNE,17,0.0,5.0,64,0.00,,,0.00,meteohub,2013-03-23 09:37:00,
2013-03-23 02:42:00,51.1,39.4,30.12,NNE,17,1.0,5.0,64,0.00,,,0.00,meteohub,2013-03-23 09:42:00,
2013-03-23 02:47:00,50.9,39.2,30.12,NNE,18,0.0,3.0,64,0.00,,,0.00,meteohub,2013-03-23 09:47:00,
2013-03-23 02:52:00,51.3,38.7,30.12,NNE,28,0.0,4.0,62,0.00,,,0.00,meteohub,2013-03-23 09:52:00,
2013-03-23 02:57:00,51.3,38.7,30.12,NNE,28,0.0,4.0,62,0.00,,,0.00,meteohub,2013-03-23 09:57:00,
2013-03-23 03:02:00,51.1,38.5,30.12,NNE,28,0.0,4.0,62,0.00,,,0.00,meteohub,2013-03-23 10:02:00,
2013-03-23 03:07:00,51.3,37.8,30.12,NNE,28,0.0,3.0,60,0.00,,,0.00,meteohub,2013-03-23 10:07:00,
2013-03-23 03:12:00,51.6,37.8,30.12,NNE,29,1.0,3.0,59,0.00,,,0.00,meteohub,2013-03-23 10:12:00,
2013-03-23 03:17:00,51.6,37.8,30.12,NNE,29,0.0,3.0,59,0.00,,,0.00,meteohub,2013-03-23 10:17:00,
2013-03-23 03:22:00,51.4,37.6,30.12,NNE,29,0.0,3.0,59,0.00,,,0.00,meteohub,2013-03-23 10:22:00,
2013-03-23 03:27:00,51.1,37.8,30.12,NNE,28,1.0,3.0,60,0.00,,,0.00,meteohub,2013-03-23 10:27:00,
2013-03-23 03:33:00,51.1,37.2,30.12,NNE,28,2.0,3.0,59,0.00,,,0.00,meteohub,2013-03-23 10:33:00,
2013-03-23 03:38:00,51.6,36.5,30.12,NNE,31,1.0,4.0,56,0.00,,,0.00,meteohub,2013-03-23 10:38:00,
2013-03-23 03:43:00,51.6,36.5,30.12,NNE,30,3.0,4.0,56,0.00,,,0.00,meteohub,2013-03-23 10:43:00,
2013-03-23 03:48:00,51.6,36.0,30.12,NNE,17,5.0,5.0,55,0.00,,,0.00,meteohub,2013-03-23 10:48:00,
2013-03-23 03:53:00,51.8,36.1,30.12,NE,35,1.0,5.0,55,0.00,,,0.00,meteohub,2013-03-23 10:53:00,
2013-03-23 03:58:00,51.4,35.8,30.12,NNE,33,1.0,5.0,55,0.00,,,0.00,meteohub,2013-03-23 10:58:00,
2013-03-23 04:03:00,51.3,35.6,30.12,NNW,344,2.0,5.0,55,0.00,,,0.00,meteohub,2013-03-23 11:03:00,
2013-03-23 04:08:00,51.6,35.6,30.12,NNE,17,4.0,5.0,54,0.00,,,0.00,meteohub,2013-03-23 11:08:00,
2013-03-23 04:13:00,51.4,36.3,30.12,NE,36,0.0,5.0,56,0.00,,,0.00,meteohub,2013-03-23 11:13:00,
2013-03-23 04:18:00,51.4,36.7,30.12,NE,36,1.0,5.0,57,0.00,,,0.00,meteohub,2013-03-23 11:18:00,
2013-03-23 04:23:00,51.3,35.6,30.12,NE,42,0.0,5.0,55,0.00,,,0.00,meteohub,2013-03-23 11:23:00,
2013-03-23 04:28:00,51.4,34.9,30.12,NNE,30,0.0,4.0,53,0.00,,,0.00,meteohub,2013-03-23 11:28:00,
2013-03-23 04:33:00,51.4,34.9,30.12,NNE,27,3.0,4.0,53,0.00,,,0.00,meteohub,2013-03-23 11:33:00,
2013-03-23 04:38:00,51.4,34.3,30.11,NNE,13,0.0,4.0,52,0.00,,,0.00,meteohub,2013-03-23 11:38:00,
2013-03-23 04:43:00,51.4,34.3,30.12,NNW,338,2.0,5.0,52,0.00,,,0.00,meteohub,2013-03-23 11:43:00,
2013-03-23 04:48:00,51.4,34.9,30.12,NNE,25,1.0,5.0,53,0.00,,,0.00,meteohub,2013-03-23 11:48:00,
2013-03-23 04:53:00,51.3,36.1,30.12,NNE,25,0.0,6.0,56,0.00,,,0.00,meteohub,2013-03-23 11:53:00,
2013-03-23 04:58:00,50.7,36.9,30.12,NW,319,0.0,6.0,59,0.00,,,0.00,meteohub,2013-03-23 11:58:00,
2013-03-23 05:03:00,50.2,37.2,30.11,NW,319,0.0,6.0,61,0.00,,,0.00,meteohub,2013-03-23 12:03:00,
2013-03-23 05:08:00,49.6,37.9,30.11,NW,319,0.0,3.0,64,0.00,,,0.00,meteohub,2013-03-23 12:08:00,
2013-03-23 05:13:00,49.1,38.3,30.12,NW,319,0.0,3.0,66,0.00,,,0.00,meteohub,2013-03-23 12:13:00,
2013-03-23 05:18:00,49.1,38.7,30.12,NW,319,0.0,1.0,67,0.00,,,0.00,meteohub,2013-03-23 12:18:00,
2013-03-23 05:23:00,49.1,38.7,30.12,NNW,327,0.0,1.0,67,0.00,,,0.00,meteohub,2013-03-23 12:23:00,
2013-03-23 05:28:00,49.5,38.7,30.12,NNW,327,0.0,3.0,66,0.00,,,0.00,meteohub,2013-03-23 12:28:00,
2013-03-23 05:33:00,49.5,38.7,30.12,NNW,327,0.0,3.0,66,0.00,,,0.00,meteohub,2013-03-23 12:33:00,
2013-03-23 05:38:00,49.3,38.8,30.12,NNW,327,0.0,3.0,67,0.00,,,0.00,meteohub,2013-03-23 12:38:00,
2013-03-23 05:43:00,49.5,38.1,30.12,NE,55,1.0,2.0,65,0.00,,,0.00,meteohub,2013-03-23 12:43:00,
2013-03-23 05:48:00,49.8,36.9,30.12,NE,42,2.0,3.0,61,0.00,,,0.00,meteohub,2013-03-23 12:48:00,
2013-03-23 05:53:00,50.4,34.9,30.12,North,355,1.0,5.0,55,0.00,,,0.00,meteohub,2013-03-23 12:53:00,
2013-03-23 05:58:00,51.3,32.2,30.12,North,10,2.0,5.0,48,0.00,,,0.00,meteohub,2013-03-23 12:58:00,
2013-03-23 06:03:00,51.8,32.2,30.12,East,83,3.0,8.0,47,0.00,,,0.00,meteohub,2013-03-23 13:03:00,
2013-03-23 06:08:00,51.8,32.2,30.13,SE,126,2.0,8.0,47,0.00,,,0.00,meteohub,2013-03-23 13:08:00,
2013-03-23 06:13:00,51.8,32.7,30.13,ENE,57,0.0,8.0,48,0.00,,,0.00,meteohub,2013-03-23 13:13:00,
2013-03-23 06:18:00,51.4,32.4,30.13,East,89,2.0,10.0,48,0.00,,,0.00,meteohub,2013-03-23 13:18:00,
2013-03-23 06:23:00,51.4,33.4,30.13,ENE,71,7.0,10.0,50,0.00,,,0.00,meteohub,2013-03-23 13:23:00,
2013-03-23 06:28:00,51.3,33.3,30.12,ENE,68,4.0,10.0,50,0.00,,,0.00,meteohub,2013-03-23 13:28:00,
2013-03-23 06:33:00,51.3,33.3,30.13,NNW,346,2.0,9.0,50,0.00,,,0.00,meteohub,2013-03-23 13:33:00,
2013-03-23 06:38:00,51.3,33.8,30.13,ENE,61,4.0,11.0,51,0.00,,,0.00,meteohub,2013-03-23 13:38:00,
2013-03-23 06:43:00,51.3,32.7,30.12,NE,49,2.0,11.0,49,0.00,,,0.00,meteohub,2013-03-23 13:43:00,
2013-03-23 06:48:00,51.4,31.3,30.13,NE,44,4.0,15.0,46,0.00,,,0.00,meteohub,2013-03-23 13:48:00,
2013-03-23 06:53:00,51.8,29.5,30.13,NNE,26,3.0,15.0,42,0.00,,,0.00,meteohub,2013-03-23 13:53:00,
2013-03-23 06:58:00,52.3,28.8,30.13,NE,40,6.0,15.0,40,0.00,,,0.00,meteohub,2013-03-23 13:58:00,
2013-03-23 07:03:00,52.3,29.3,30.13,ENE,71,3.0,13.0,41,0.00,,,0.00,meteohub,2013-03-23 14:03:00,
2013-03-23 07:08:00,52.3,27.5,30.13,NE,47,3.0,13.0,38,0.00,,,0.00,meteohub,2013-03-23 14:08:00,
2013-03-23 07:13:00,52.5,27.7,30.14,NNE,13,9.0,11.0,38,0.00,,,0.00,meteohub,2013-03-23 14:13:00,
2013-03-23 07:18:00,52.5,27.7,30.14,NE,45,2.0,12.0,38,0.00,,,0.00,meteohub,2013-03-23 14:18:00,
2013-03-23 07:23:00,52.3,28.0,30.14,NNE,32,3.0,12.0,39,0.00,,,0.00,meteohub,2013-03-23 14:23:00,
2013-03-23 07:28:00,52.2,29.1,30.14,NNW,335,2.0,12.0,41,0.00,,,0.00,meteohub,2013-03-23 14:28:00,
2013-03-23 07:34:00,51.6,31.5,30.15,NE,55,4.0,11.0,46,0.00,,,0.00,meteohub,2013-03-23 14:34:00,
2013-03-23 07:39:00,50.9,34.3,30.15,North,355,2.0,11.0,53,0.00,,,0.00,meteohub,2013-03-23 14:39:00,
2013-03-23 07:44:00,50.4,34.9,30.16,NNE,33,5.0,7.0,55,0.00,,,0.00,meteohub,2013-03-23 14:44:00,
2013-03-23 07:49:00,50.5,35.1,30.16,NE,36,2.0,7.0,55,0.00,,,0.00,meteohub,2013-03-23 14:49:00,
2013-03-23 07:54:00,50.7,34.2,30.16,NE,38,3.0,6.0,53,0.00,,,0.00,meteohub,2013-03-23 14:54:00,
2013-03-23 07:59:00,50.9,34.9,30.16,NNE,23,1.0,7.0,54,0.00,,,0.00,meteohub,2013-03-23 14:59:00,
2013-03-23 08:04:00,50.9,35.2,30.16,North,0,3.0,8.0,55,0.00,,,0.00,meteohub,2013-03-23 15:04:00,
2013-03-23 08:09:00,50.9,36.1,30.16,North,11,2.0,8.0,57,0.00,,,0.00,meteohub,2013-03-23 15:09:00,
2013-03-23 08:14:00,51.3,35.6,30.16,North,5,3.0,8.0,55,0.00,,,0.00,meteohub,2013-03-23 15:14:00,
2013-03-23 08:19:00,51.3,35.2,30.16,North,5,2.0,8.0,54,0.00,,,0.00,meteohub,2013-03-23 15:19:00,
2013-03-23 08:24:00,51.4,35.8,30.17,NE,40,4.0,6.0,55,0.00,,,0.00,meteohub,2013-03-23 15:24:00,
2013-03-23 08:29:00,51.4,37.2,30.17,NNW,348,1.0,6.0,58,0.00,,,0.00,meteohub,2013-03-23 15:29:00,
2013-03-23 08:34:00,51.6,36.5,30.17,North,5,3.0,5.0,56,0.00,,,0.00,meteohub,2013-03-23 15:34:00,
2013-03-23 08:39:00,51.8,36.7,30.17,North,355,4.0,5.0,56,0.00,,,0.00,meteohub,2013-03-23 15:39:00,
2013-03-23 08:44:00,52.0,36.3,30.17,North,5,5.0,5.0,55,0.00,,,0.00,meteohub,2013-03-23 15:44:00,
2013-03-23 08:49:00,52.2,36.0,30.17,NNW,348,5.0,6.0,54,0.00,,,0.00,meteohub,2013-03-23 15:49:00,
2013-03-23 08:54:00,52.3,35.2,30.17,NNW,342,3.0,6.0,52,0.00,,,0.00,meteohub,2013-03-23 15:54:00,
2013-03-23 08:59:00,52.9,35.8,30.17,NE,42,1.0,7.0,52,0.00,,,0.00,meteohub,2013-03-23 15:59:00,
2013-03-23 09:04:00,53.2,35.1,30.17,North,9,1.0,7.0,50,0.00,,,0.00,meteohub,2013-03-23 16:04:00,
2013-03-23 09:09:00,53.4,33.1,30.17,NE,48,1.0,6.0,46,0.00,,,0.00,meteohub,2013-03-23 16:09:00,
2013-03-23 09:14:00,53.8,32.9,30.17,North,5,3.0,7.0,45,0.00,,,0.00,meteohub,2013-03-23 16:14:00,
2013-03-23 09:19:00,54.1,32.7,30.17,NE,39,2.0,7.0,44,0.00,,,0.00,meteohub,2013-03-23 16:19:00,
2013-03-23 09:24:00,54.3,32.9,30.16,NW,319,3.0,8.0,44,0.00,,,0.00,meteohub,2013-03-23 16:24:00,
2013-03-23 09:29:00,54.5,33.1,30.16,NNE,13,1.0,10.0,44,0.00,,,0.00,meteohub,2013-03-23 16:29:00,
2013-03-23 09:34:00,55.0,32.9,30.17,NNW,345,4.0,10.0,43,0.00,,,0.00,meteohub,2013-03-23 16:34:00,
2013-03-23 09:39:00,55.2,33.1,30.16,NNE,26,0.0,6.0,43,0.00,,,0.00,meteohub,2013-03-23 16:39:00,
2013-03-23 09:44:00,55.8,33.1,30.17,NE,38,4.0,7.0,42,0.00,,,0.00,meteohub,2013-03-23 16:44:00,
2013-03-23 09:49:00,55.9,32.5,30.17,North,355,3.0,7.0,41,0.00,,,0.00,meteohub,2013-03-23 16:49:00,
2013-03-23 09:54:00,55.9,32.0,30.17,NNE,18,4.0,7.0,40,0.00,,,0.00,meteohub,2013-03-23 16:54:00,
2013-03-23 10:00:00,56.1,31.5,30.17,NE,40,2.0,7.0,39,0.00,,,0.00,meteohub,2013-03-23 17:00:00,
2013-03-23 10:04:00,56.5,31.8,30.17,North,5,4.0,7.0,39,0.00,,,0.00,meteohub,2013-03-23 17:04:00,
2013-03-23 10:09:00,56.5,31.1,30.17,NNW,328,6.0,7.0,38,0.00,,,0.00,meteohub,2013-03-23 17:09:00,
2013-03-23 10:15:00,56.8,32.2,30.17,North,9,0.0,7.0,39,0.00,,,0.00,meteohub,2013-03-23 17:15:00,
2013-03-23 10:20:00,57.0,30.4,30.17,NNW,342,2.0,7.0,36,0.00,,,0.00,meteohub,2013-03-23 17:20:00,
2013-03-23 10:25:00,56.8,28.8,30.17,NNE,19,4.0,7.0,34,0.00,,,0.00,meteohub,2013-03-23 17:25:00,
2013-03-23 10:30:00,57.4,30.6,30.17,NNE,31,2.0,7.0,36,0.00,,,0.00,meteohub,2013-03-23 17:30:00,
2013-03-23 10:35:00,57.0,30.9,30.17,NE,39,5.0,7.0,37,0.00,,,0.00,meteohub,2013-03-23 17:35:00,
2013-03-23 10:40:00,57.2,30.6,30.17,NE,36,2.0,6.0,36,0.00,,,0.00,meteohub,2013-03-23 17:40:00,
2013-03-23 10:45:00,57.9,30.4,30.17,North,5,5.0,6.0,35,0.00,,,0.00,meteohub,2013-03-23 17:45:00,
2013-03-23 10:50:00,57.9,30.4,30.17,NNE,13,1.0,6.0,35,0.00,,,0.00,meteohub,2013-03-23 17:50:00,
2013-03-23 10:55:00,58.5,30.9,30.17,NNE,14,2.0,7.0,35,0.00,,,0.00,meteohub,2013-03-23 17:55:00,
2013-03-23 11:00:00,58.5,28.8,30.17,North,350,2.0,8.0,32,0.00,,,0.00,meteohub,2013-03-23 18:00:00,
2013-03-23 11:05:00,58.6,28.9,30.17,NNW,344,4.0,8.0,32,0.00,,,0.00,meteohub,2013-03-23 18:05:00,
2013-03-23 11:10:00,59.5,28.9,30.17,NE,34,5.0,8.0,31,0.00,,,0.00,meteohub,2013-03-23 18:10:00,
2013-03-23 11:15:00,59.9,26.8,30.17,North,11,6.0,6.0,28,0.00,,,0.00,meteohub,2013-03-23 18:15:00,
2013-03-23 11:20:00,59.5,27.3,30.17,NW,314,3.0,6.0,29,0.00,,,0.00,meteohub,2013-03-23 18:20:00,
2013-03-23 11:25:00,59.4,26.2,30.17,North,5,6.0,8.0,28,0.00,,,0.00,meteohub,2013-03-23 18:25:00,
2013-03-23 11:30:00,59.4,27.1,30.17,North,5,4.0,8.0,29,0.00,,,0.00,meteohub,2013-03-23 18:30:00,
2013-03-23 11:35:00,59.4,26.2,30.17,NNW,342,4.0,7.0,28,0.00,,,0.00,meteohub,2013-03-23 18:35:00,
2013-03-23 11:40:00,60.1,26.1,30.17,NNE,19,5.0,8.0,27,0.00,,,0.00,meteohub,2013-03-23 18:40:00,
2013-03-23 11:45:00,60.1,25.2,30.16,ENE,67,0.0,8.0,26,0.00,,,0.00,meteohub,2013-03-23 18:45:00,
2013-03-23 11:50:00,60.8,24.8,30.16,North,5,6.0,8.0,25,0.00,,,0.00,meteohub,2013-03-23 18:50:00,
2013-03-23 11:55:00,60.6,23.5,30.16,North,355,2.0,7.0,24,0.00,,,0.00,meteohub,2013-03-23 18:55:00,
2013-03-23 12:00:00,61.2,24.1,30.16,North,350,4.0,8.0,24,0.00,,,0.00,meteohub,2013-03-23 19:00:00,
2013-03-23 12:05:00,60.6,23.5,30.16,NNE,26,0.0,8.0,24,0.00,,,0.00,meteohub,2013-03-23 19:05:00,
2013-03-23 12:10:00,60.6,25.5,30.16,North,5,1.0,7.0,26,0.00,,,0.00,meteohub,2013-03-23 19:10:00,
2013-03-23 12:15:00,61.9,27.5,30.16,NE,38,2.0,7.0,27,0.00,,,0.00,meteohub,2013-03-23 19:15:00,
2013-03-23 12:20:00,61.5,28.0,30.16,NNE,20,1.0,6.0,28,0.00,,,0.00,meteohub,2013-03-23 19:20:00,
2013-03-23 12:25:00,61.3,27.9,30.15,WNW,303,4.0,6.0,28,0.00,,,0.00,meteohub,2013-03-23 19:25:00,
2013-03-23 12:30:00,61.2,27.9,30.15,North,5,4.0,7.0,28,0.00,,,0.00,meteohub,2013-03-23 19:30:00,
2013-03-23 12:35:00,62.1,25.9,30.15,North,0,3.0,7.0,25,0.00,,,0.00,meteohub,2013-03-23 19:35:00,
2013-03-23 12:40:00,62.2,27.0,30.15,NNW,330,3.0,7.0,26,0.00,,,0.00,meteohub,2013-03-23 19:40:00,
2013-03-23 12:45:00,62.6,27.1,30.14,NNE,15,2.0,7.0,26,0.00,,,0.00,meteohub,2013-03-23 19:45:00,
2013-03-23 12:50:00,63.1,28.6,30.14,North,11,4.0,6.0,27,0.00,,,0.00,meteohub,2013-03-23 19:50:00,
2013-03-23 12:55:00,62.8,31.6,30.14,NNE,24,3.0,6.0,31,0.00,,,0.00,meteohub,2013-03-23 19:55:00,
2013-03-23 13:00:00,63.3,30.6,30.14,NNW,329,4.0,6.0,29,0.00,,,0.00,meteohub,2013-03-23 20:00:00,
2013-03-23 13:05:00,63.1,30.4,30.14,NNE,14,3.0,7.0,29,0.00,,,0.00,meteohub,2013-03-23 20:05:00,
2013-03-23 13:10:00,63.7,33.3,30.14,NNW,327,4.0,9.0,32,0.00,,,0.00,meteohub,2013-03-23 20:10:00,
2013-03-23 13:15:00,63.7,34.0,30.14,NNE,18,2.0,9.0,33,0.00,,,0.00,meteohub,2013-03-23 20:15:00,
2013-03-23 13:20:00,62.8,33.3,30.14,North,5,3.0,9.0,33,0.00,,,0.00,meteohub,2013-03-23 20:20:00,
2013-03-23 13:25:00,63.3,33.8,30.13,NW,305,3.0,7.0,33,0.00,,,0.00,meteohub,2013-03-23 20:25:00,
2013-03-23 13:30:00,63.3,35.2,30.13,NW,323,0.0,7.0,35,0.00,,,0.00,meteohub,2013-03-23 20:30:00,
2013-03-23 13:35:00,63.5,34.7,30.13,NNW,346,0.0,7.0,34,0.00,,,0.00,meteohub,2013-03-23 20:35:00,
2013-03-23 13:41:00,64.0,35.1,30.13,WNW,303,3.0,7.0,34,0.00,,,0.00,meteohub,2013-03-23 20:41:00,
2013-03-23 13:46:00,63.7,41.9,30.13,NW,311,5.0,6.0,45,0.00,,,0.00,meteohub,2013-03-23 20:46:00,
2013-03-23 13:51:00,62.4,42.4,30.13,West,274,2.0,7.0,48,0.00,,,0.00,meteohub,2013-03-23 20:51:00,
2013-03-23 13:56:00,60.4,42.3,30.13,NW,316,3.0,8.0,51,0.00,,,0.00,meteohub,2013-03-23 20:56:00,
2013-03-23 14:01:00,60.1,42.4,30.13,NW,326,4.0,8.0,52,0.00,,,0.00,meteohub,2013-03-23 21:01:00,
2013-03-23 14:06:00,59.9,42.8,30.13,NW,323,2.0,8.0,53,0.00,,,0.00,meteohub,2013-03-23 21:06:00,
2013-03-23 14:11:00,59.2,42.6,30.13,WNW,282,4.0,10.0,54,0.00,,,0.00,meteohub,2013-03-23 21:11:00,
2013-03-23 14:16:00,58.5,41.4,30.13,NNW,336,7.0,10.0,53,0.00,,,0.00,meteohub,2013-03-23 21:16:00,
2013-03-23 14:21:00,57.6,43.0,30.13,SSW,196,2.0,10.0,58,0.00,,,0.00,meteohub,2013-03-23 21:21:00,
2013-03-23 14:26:00,57.0,41.0,30.13,NNW,336,5.0,12.0,55,0.00,,,0.00,meteohub,2013-03-23 21:26:00,
2013-03-23 14:32:00,56.1,42.4,30.13,NW,314,7.0,12.0,60,0.00,,,0.00,meteohub,2013-03-23 21:32:00,
2013-03-23 14:37:00,56.1,42.4,30.13,NW,325,2.0,14.0,60,0.00,,,0.00,meteohub,2013-03-23 21:37:00,
2013-03-23 14:42:00,55.8,43.0,30.12,WNW,296,2.0,14.0,62,0.00,,,0.00,meteohub,2013-03-23 21:42:00,
2013-03-23 14:47:00,55.9,43.2,30.12,NW,326,2.0,11.0,62,0.00,,,0.00,meteohub,2013-03-23 21:47:00,
2013-03-23 14:52:00,55.2,42.8,30.12,West,277,2.0,11.0,63,0.00,,,0.00,meteohub,2013-03-23 21:52:00,
2013-03-23 14:57:00,55.6,42.3,30.12,North,5,1.0,8.0,61,0.00,,,0.00,meteohub,2013-03-23 21:57:00,
2013-03-23 15:02:00,54.7,41.5,30.12,WNW,297,6.0,8.0,61,0.00,,,0.00,meteohub,2013-03-23 22:02:00,
2013-03-23 15:07:00,54.3,42.8,30.12,NW,324,6.0,10.0,65,0.00,,,0.00,meteohub,2013-03-23 22:07:00,
2013-03-23 15:12:00,54.1,43.3,30.12,NNW,336,3.0,10.0,67,0.00,,,0.00,meteohub,2013-03-23 22:12:00,
2013-03-23 15:17:00,53.6,42.4,30.11,WNW,302,5.0,10.0,66,0.00,,,0.00,meteohub,2013-03-23 22:17:00,
2013-03-23 15:22:00,53.8,43.2,30.11,NW,325,5.0,10.0,67,0.00,,,0.00,meteohub,2013-03-23 22:22:00,
2013-03-23 15:27:00,54.1,42.6,30.11,NW,314,9.0,9.0,65,0.00,,,0.00,meteohub,2013-03-23 22:27:00,
2013-03-23 15:32:00,54.0,43.3,30.11,NNW,330,5.0,9.0,67,0.00,,,0.00,meteohub,2013-03-23 22:32:00,
2013-03-23 15:37:00,54.0,43.3,30.11,WNW,294,5.0,9.0,67,0.00,,,0.00,meteohub,2013-03-23 22:37:00,
2013-03-23 15:42:00,54.3,43.2,30.11,SW,234,0.0,9.0,66,0.00,,,0.00,meteohub,2013-03-23 22:42:00,
2013-03-23 15:47:00,54.5,42.6,30.11,NW,325,6.0,9.0,64,0.00,,,0.00,meteohub,2013-03-23 22:47:00,
2013-03-23 15:53:00,54.3,42.4,30.11,WNW,300,5.0,10.0,64,0.00,,,0.00,meteohub,2013-03-23 22:53:00,
2013-03-23 15:58:00,54.7,43.2,30.11,WNW,300,1.0,11.0,65,0.00,,,0.00,meteohub,2013-03-23 22:58:00,
2013-03-23 16:03:00,54.5,43.0,30.10,NNE,16,3.0,11.0,65,0.00,,,0.00,meteohub,2013-03-23 23:03:00,
2013-03-23 16:08:00,55.0,42.6,30.10,SSW,203,4.0,11.0,63,0.00,,,0.00,meteohub,2013-03-23 23:08:00,
2013-03-23 16:13:00,55.6,41.9,30.10,NNW,336,5.0,9.0,60,0.00,,,0.00,meteohub,2013-03-23 23:13:00,
2013-03-23 16:18:00,54.7,41.9,30.10,NNW,331,3.0,10.0,62,0.00,,,0.00,meteohub,2013-03-23 23:18:00,
2013-03-23 16:23:00,54.9,41.7,30.11,NW,321,5.0,10.0,61,0.00,,,0.00,meteohub,2013-03-23 23:23:00,
2013-03-23 16:28:00,54.9,42.4,30.11,NW,304,6.0,10.0,63,0.00,,,0.00,meteohub,2013-03-23 23:28:00,
2013-03-23 16:33:00,54.9,41.2,30.11,NNW,346,4.0,10.0,60,0.00,,,0.00,meteohub,2013-03-23 23:33:00,
2013-03-23 16:38:00,55.0,39.6,30.11,North,355,9.0,10.0,56,0.00,,,0.00,meteohub,2013-03-23 23:38:00,
2013-03-23 16:43:00,55.9,39.9,30.11,North,355,2.0,10.0,55,0.00,,,0.00,meteohub,2013-03-23 23:43:00,
2013-03-23 16:48:00,55.9,39.6,30.10,NNW,327,4.0,10.0,54,0.00,,,0.00,meteohub,2013-03-23 23:48:00,
2013-03-23 16:53:00,56.5,38.7,30.10,WNW,299,2.0,9.0,51,0.00,,,0.00,meteohub,2013-03-23 23:53:00,
2013-03-23 16:58:00,56.7,39.2,30.10,West,268,4.0,8.0,52,0.00,,,0.00,meteohub,2013-03-23 23:58:00,
2013-03-23 17:03:00,56.3,39.4,30.10,South,171,3.0,6.0,53,0.00,,,0.00,meteohub,2013-03-24 00:03:00,
2013-03-23 17:08:00,55.9,39.9,30.10,SSW,202,3.0,6.0,55,0.00,,,0.00,meteohub,2013-03-24 00:08:00,
2013-03-23 17:13:00,55.9,41.9,30.10,WNW,294,3.0,7.0,59,0.00,,,0.00,meteohub,2013-03-24 00:13:00,
2013-03-23 17:18:00,55.2,42.1,30.10,NW,311,0.0,8.0,61,0.00,,,0.00,meteohub,2013-03-24 00:18:00,
2013-03-23 17:23:00,54.9,43.3,30.10,West,269,4.0,8.0,65,0.00,,,0.00,meteohub,2013-03-24 00:23:00,
2013-03-23 17:28:00,54.1,43.9,30.10,West,265,3.0,8.0,68,0.00,,,0.00,meteohub,2013-03-24 00:28:00,
2013-03-23 17:33:00,53.8,44.2,30.10,NNW,331,4.0,8.0,70,0.00,,,0.00,meteohub,2013-03-24 00:33:00,
2013-03-23 17:39:00,53.4,44.2,30.10,NW,319,4.0,8.0,71,0.00,,,0.00,meteohub,2013-03-24 00:39:00,
2013-03-23 17:44:00,52.9,44.1,30.10,NNW,333,3.0,11.0,72,0.00,,,0.00,meteohub,2013-03-24 00:44:00,
2013-03-23 17:49:00,52.5,44.1,30.10,WNW,302,5.0,11.0,73,0.00,,,0.00,meteohub,2013-03-24 00:49:00,
2013-03-23 17:54:00,52.3,43.9,30.10,WNW,299,6.0,11.0,73,0.00,,,0.00,meteohub,2013-03-24 00:54:00,
2013-03-23 17:59:00,52.3,44.6,30.10,NNW,335,6.0,10.0,75,0.00,,,0.00,meteohub,2013-03-24 00:59:00,
2013-03-23 18:04:00,52.2,44.4,30.10,NW,307,4.0,10.0,75,0.00,,,0.00,meteohub,2013-03-24 01:04:00,
2013-03-23 18:09:00,52.0,44.6,30.10,NNW,345,2.0,12.0,76,0.00,,,0.00,meteohub,2013-03-24 01:09:00,
2013-03-23 18:14:00,51.6,44.6,30.10,NW,306,3.0,12.0,77,0.00,,,0.00,meteohub,2013-03-24 01:14:00,
2013-03-23 18:19:00,51.3,44.6,30.10,NNW,336,4.0,12.0,78,0.00,,,0.00,meteohub,2013-03-24 01:19:00,
2013-03-23 18:24:00,51.1,44.4,30.10,NW,317,4.0,11.0,78,0.00,,,0.00,meteohub,2013-03-24 01:24:00,
2013-03-23 18:29:00,50.9,44.2,30.10,NW,314,5.0,10.0,78,0.00,,,0.00,meteohub,2013-03-24 01:29:00,
2013-03-23 18:34:00,50.7,44.4,30.10,NW,317,3.0,10.0,79,0.00,,,0.00,meteohub,2013-03-24 01:34:00,
2013-03-23 18:39:00,50.5,44.2,30.10,NW,319,5.0,10.0,79,0.00,,,0.00,meteohub,2013-03-24 01:39:00,
2013-03-23 18:44:00,50.4,44.4,30.10,WNW,302,3.0,9.0,80,0.00,,,0.00,meteohub,2013-03-24 01:44:00,
2013-03-23 18:49:00,50.2,44.2,30.10,WNW,302,3.0,8.0,80,0.00,,,0.00,meteohub,2013-03-24 01:49:00,
2013-03-23 18:54:00,50.2,44.6,30.10,NW,314,4.0,8.0,81,0.00,,,0.00,meteohub,2013-03-24 01:54:00,
2013-03-23 18:59:00,49.8,44.2,30.10,WNW,297,4.0,9.0,81,0.00,,,0.00,meteohub,2013-03-24 01:59:00,
2013-03-23 19:04:00,49.6,44.4,30.10,NW,313,0.0,9.0,82,0.00,,,0.00,meteohub,2013-03-24 02:04:00,
2013-03-23 19:09:00,49.6,44.4,30.10,NW,306,3.0,9.0,82,0.00,,,0.00,meteohub,2013-03-24 02:09:00,
2013-03-23 19:14:00,49.6,44.4,30.10,NNW,333,4.0,9.0,82,0.00,,,0.00,meteohub,2013-03-24 02:14:00,
2013-03-23 19:19:00,49.5,44.6,30.10,WNW,299,4.0,8.0,83,0.00,,,0.00,meteohub,2013-03-24 02:19:00,
2013-03-23 19:24:00,49.5,44.6,30.10,NW,309,1.0,8.0,83,0.00,,,0.00,meteohub,2013-03-24 02:24:00,
2013-03-23 19:29:00,49.3,44.4,30.10,NW,314,1.0,8.0,83,0.00,,,0.00,meteohub,2013-03-24 02:29:00,
2013-03-23 19:34:00,48.9,44.1,30.10,WNW,288,1.0,6.0,83,0.00,,,0.00,meteohub,2013-03-24 02:34:00,
2013-03-23 19:39:00,48.9,44.2,30.09,SW,225,2.0,6.0,84,0.00,,,0.00,meteohub,2013-03-24 02:39:00,
2013-03-23 19:44:00,48.7,44.1,30.10,SSW,213,1.0,6.0,84,0.00,,,0.00,meteohub,2013-03-24 02:44:00,
2013-03-23 19:49:00,48.7,44.1,30.10,WNW,288,1.0,6.0,84,0.00,,,0.00,meteohub,2013-03-24 02:49:00,
2013-03-23 19:55:00,48.7,44.1,30.10,South,169,0.0,5.0,84,0.00,,,0.00,meteohub,2013-03-24 02:55:00,
2013-03-23 20:00:00,48.6,44.2,30.10,WSW,253,0.0,6.0,85,0.00,,,0.00,meteohub,2013-03-24 03:00:00,
2013-03-23 20:05:00,48.6,44.2,30.10,SSW,209,1.0,6.0,85,0.00,,,0.00,meteohub,2013-03-24 03:05:00,
2013-03-23 20:09:00,48.6,44.2,30.10,South,180,0.0,4.0,85,0.00,,,0.00,meteohub,2013-03-24 03:09:00,
2013-03-23 20:14:00,48.6,44.2,30.10,South,186,1.0,5.0,85,0.00,,,0.00,meteohub,2013-03-24 03:14:00,
2013-03-23 20:19:00,48.4,44.4,30.10,SSE,166,3.0,5.0,86,0.00,,,0.00,meteohub,2013-03-24 03:19:00,
2013-03-23 20:25:00,48.4,44.4,30.11,ESE,105,2.0,5.0,86,0.00,,,0.00,meteohub,2013-03-24 03:25:00,
2013-03-23 20:30:00,48.2,44.2,30.11,SSE,159,1.0,5.0,86,0.00,,,0.00,meteohub,2013-03-24 03:30:00,
2013-03-23 20:35:00,48.2,44.6,30.11,SSW,195,0.0,5.0,87,0.00,,,0.00,meteohub,2013-03-24 03:35:00,
2013-03-23 20:40:00,48.2,44.6,30.11,SSW,209,1.0,5.0,87,0.00,,,0.00,meteohub,2013-03-24 03:40:00,
2013-03-23 20:45:00,48.0,44.4,30.11,SW,222,0.0,5.0,87,0.00,,,0.00,meteohub,2013-03-24 03:45:00,
2013-03-23 20:50:00,48.0,44.4,30.11,South,175,0.0,5.0,87,0.00,,,0.00,meteohub,2013-03-24 03:50:00,
2013-03-23 20:55:00,48.0,44.6,30.11,SW,215,3.0,4.0,88,0.00,,,0.00,meteohub,2013-03-24 03:55:00,
2013-03-23 21:00:00,48.0,44.4,30.11,SSW,208,0.0,4.0,87,0.00,,,0.00,meteohub,2013-03-24 04:00:00,
2013-03-23 21:05:00,48.0,44.6,30.11,SSW,207,0.0,5.0,88,0.00,,,0.00,meteohub,2013-03-24 04:05:00,
2013-03-23 21:10:00,47.8,44.4,30.11,South,178,1.0,5.0,88,0.00,,,0.00,meteohub,2013-03-24 04:10:00,
2013-03-23 21:15:00,47.8,44.4,30.11,SSW,198,0.0,5.0,88,0.00,,,0.00,meteohub,2013-03-24 04:15:00,
2013-03-23 21:20:00,47.7,44.2,30.11,SSW,201,0.0,6.0,88,0.00,,,0.00,meteohub,2013-03-24 04:20:00,
2013-03-23 21:25:00,47.7,44.2,30.11,SSE,159,0.0,6.0,88,0.00,,,0.00,meteohub,2013-03-24 04:25:00,
2013-03-23 21:31:00,47.7,44.2,30.11,SSE,165,2.0,6.0,88,0.00,,,0.00,meteohub,2013-03-24 04:31:00,
2013-03-23 21:36:00,47.7,44.2,30.12,NNW,342,0.0,3.0,88,0.00,,,0.00,meteohub,2013-03-24 04:36:00,
2013-03-23 21:41:00,47.7,44.2,30.12,SW,221,0.0,7.0,88,0.00,,,0.00,meteohub,2013-03-24 04:41:00,
2013-03-23 21:46:00,47.7,44.2,30.12,SW,217,0.0,7.0,88,0.00,,,0.00,meteohub,2013-03-24 04:46:00,
2013-03-23 21:51:00,47.7,44.2,30.12,SSW,198,2.0,7.0,88,0.00,,,0.00,meteohub,2013-03-24 04:51:00,
2013-03-23 21:56:00,47.5,44.4,30.12,ESE,105,1.0,4.0,89,0.00,,,0.00,meteohub,2013-03-24 04:56:00,
2013-03-23 22:01:00,47.5,44.4,30.12,South,175,1.0,4.0,89,0.00,,,0.00,meteohub,2013-03-24 05:01:00,
2013-03-23 22:06:00,47.5,44.4,30.12,South,186,0.0,4.0,89,0.00,,,0.00,meteohub,2013-03-24 05:06:00,
2013-03-23 22:11:00,47.5,44.4,30.12,SSE,159,0.0,4.0,89,0.00,,,0.00,meteohub,2013-03-24 05:11:00,
2013-03-23 22:16:00,47.3,44.2,30.12,SSE,160,0.0,4.0,89,0.00,,,0.00,meteohub,2013-03-24 05:16:00,
2013-03-23 22:21:00,47.3,44.2,30.12,SSE,162,2.0,3.0,89,0.00,,,0.00,meteohub,2013-03-24 05:21:00,
2013-03-23 22:27:00,47.3,44.2,30.12,SSW,194,3.0,4.0,89,0.00,,,0.00,meteohub,2013-03-24 05:27:00,
2013-03-23 22:32:00,47.1,44.1,30.12,SW,218,0.0,4.0,89,0.00,,,0.00,meteohub,2013-03-24 05:32:00,
2013-03-23 22:37:00,47.1,44.4,30.12,SW,234,2.0,9.0,90,0.00,,,0.00,meteohub,2013-03-24 05:37:00,
2013-03-23 22:42:00,47.3,44.6,30.12,SE,144,3.0,9.0,90,0.00,,,0.00,meteohub,2013-03-24 05:42:00,
2013-03-23 22:47:00,47.1,44.4,30.12,South,186,2.0,9.0,90,0.00,,,0.00,meteohub,2013-03-24 05:47:00,
2013-03-23 22:52:00,47.1,44.4,30.12,SSW,193,3.0,7.0,90,0.00,,,0.00,meteohub,2013-03-24 05:52:00,
2013-03-23 22:57:00,47.1,44.4,30.12,SW,236,3.0,6.0,90,0.00,,,0.00,meteohub,2013-03-24 05:57:00,
2013-03-23 23:02:00,47.1,44.4,30.12,SSE,158,0.0,6.0,90,0.00,,,0.00,meteohub,2013-03-24 06:02:00,
2013-03-23 23:07:00,47.1,44.4,30.12,South,182,3.0,6.0,90,0.00,,,0.00,meteohub,2013-03-24 06:07:00,
2013-03-23 23:12:00,47.1,44.4,30.12,SSW,200,1.0,7.0,90,0.00,,,0.00,meteohub,2013-03-24 06:12:00,
2013-03-23 23:17:00,47.1,44.4,30.12,SW,218,0.0,7.0,90,0.00,,,0.00,meteohub,2013-03-24 06:17:00,
2013-03-23 23:22:00,47.1,44.4,30.12,SSE,163,2.0,6.0,90,0.00,,,0.00,meteohub,2013-03-24 06:22:00,
2013-03-23 23:27:00,46.9,44.4,30.12,SSW,198,4.0,6.0,91,0.00,,,0.00,meteohub,2013-03-24 06:27:00,
2013-03-23 23:32:00,46.9,44.4,30.12,SSW,198,1.0,5.0,91,0.00,,,0.00,meteohub,2013-03-24 06:32:00,
2013-03-23 23:37:00,46.9,44.4,30.12,South,191,2.0,5.0,91,0.00,,,0.00,meteohub,2013-03-24 06:37:00,
2013-03-23 23:42:00,46.9,44.4,30.12,SSE,155,0.0,6.0,91,0.00,,,0.00,meteohub,2013-03-24 06:42:00,
2013-03-23 23:47:00,46.9,44.4,30.12,South,169,0.0,6.0,91,0.00,,,0.00,meteohub,2013-03-24 06:47:00,
2013-03-23 23:52:00,46.9,44.4,30.11,SE,139,0.0,6.0,91,0.00,,,0.00,meteohub,2013-03-24 06:52:00,
2013-03-23 23:57:00,46.8,44.2,30.11,SSE,155,0.0,6.0,91,0.00,,,0.00,meteohub,2013-03-24 06:57:00,